Princeton, Louisiana
Current Conditions -  °F | °C
As of 5:58 AM on Monday 26 Jan 2015 (Local Time) from KBAD Reporting Station
Clear Clear  
Wind Chill: 34°   Ceiling: Unl
Heat Index: 39°   Visibility: 10mi
Dew Point: 31°   Wind: 7mph
Humidity: 73%   Direction: 340°NNW
Pressure: 30.16"   Gusts: NA
Location:  32.59°N, 93.52°W
Report Text: KBAD 261158Z AUTO 34006KT 10SM CLR 04/00 A3016 RMK AO2 SLP216 T00401005 10086 20040 52009
Loading
Personal Weather Stations






























Interactive Weather Map New forecast layout! Learn more

10-Day Weather Forecast

Advertisements
Track Severe Weather on mobile